sensor_id;sensor_type;location;lat;lon;timestamp;pressure;altitude;pressure_sealevel;temperature;humidity
74680;BME280;63211;48.548;2.704;2023-08-21T00:02:13;101536.16;;;23.97;64.54
74680;BME280;63211;48.548;2.704;2023-08-21T00:04:40;101538.06;;;23.97;64.16
74680;BME280;63211;48.548;2.704;2023-08-21T00:07:07;101538.06;;;23.97;64.36
74680;BME280;63211;48.548;2.704;2023-08-21T00:09:34;101536.38;;;23.96;64.33
74680;BME280;63211;48.548;2.704;2023-08-21T00:12:01;101530.88;;;23.96;64.53
74680;BME280;63211;48.548;2.704;2023-08-21T00:14:27;101535.56;;;23.95;63.91
74680;BME280;63211;48.548;2.704;2023-08-21T00:16:55;101534.97;;;23.93;64.00
74680;BME280;63211;48.548;2.704;2023-08-21T00:19:22;101534.13;;;23.93;63.93
74680;BME280;63211;48.548;2.704;2023-08-21T00:21:49;101538.47;;;23.89;63.92
74680;BME280;63211;48.548;2.704;2023-08-21T00:24:16;101538.78;;;23.92;63.92
74680;BME280;63211;48.548;2.704;2023-08-21T00:26:42;101541.53;;;23.92;63.79
74680;BME280;63211;48.548;2.704;2023-08-21T00:29:09;101533.53;;;23.91;64.00
74680;BME280;63211;48.548;2.704;2023-08-21T00:31:35;101542.59;;;23.91;63.65
74680;BME280;63211;48.548;2.704;2023-08-21T00:34:03;101543.44;;;23.92;64.05
74680;BME280;63211;48.548;2.704;2023-08-21T00:36:30;101538.78;;;23.92;63.77
74680;BME280;63211;48.548;2.704;2023-08-21T00:38:56;101526.38;;;23.90;63.81
74680;BME280;63211;48.548;2.704;2023-08-21T00:41:23;101534.34;;;23.91;63.57
74680;BME280;63211;48.548;2.704;2023-08-21T00:43:50;101518.00;;;23.85;63.66
74680;BME280;63211;48.548;2.704;2023-08-21T00:46:17;101513.59;;;23.84;63.44
74680;BME280;63211;48.548;2.704;2023-08-21T00:48:44;101524.69;;;23.89;63.71
74680;BME280;63211;48.548;2.704;2023-08-21T00:51:14;101523.28;;;23.86;63.27
74680;BME280;63211;48.548;2.704;2023-08-21T00:53:42;101520.28;;;23.88;63.43
74680;BME280;63211;48.548;2.704;2023-08-21T00:56:09;101524.09;;;23.87;63.00
74680;BME280;63211;48.548;2.704;2023-08-21T00:58:36;101522.44;;;23.86;63.37
74680;BME280;63211;48.548;2.704;2023-08-21T01:01:02;101524.34;;;23.85;63.43
74680;BME280;63211;48.548;2.704;2023-08-21T01:03:30;101521.59;;;23.85;63.21
74680;BME280;63211;48.548;2.704;2023-08-21T01:05:56;101531.16;;;23.83;63.38
74680;BME280;63211;48.548;2.704;2023-08-21T01:08:29;101535.00;;;23.82;63.38
74680;BME280;63211;48.548;2.704;2023-08-21T01:11:02;101534.75;;;23.83;63.34
74680;BME280;63211;48.548;2.704;2023-08-21T01:13:41;101527.22;;;23.79;63.08
74680;BME280;63211;48.548;2.704;2023-08-21T01:16:11;101535.81;;;23.82;62.95
74680;BME280;63211;48.548;2.704;2023-08-21T01:18:40;101530.31;;;23.82;62.96
74680;BME280;63211;48.548;2.704;2023-08-21T01:21:08;101523.16;;;23.81;63.32
74680;BME280;63211;48.548;2.704;2023-08-21T01:23:36;101523.16;;;23.81;63.39
74680;BME280;63211;48.548;2.704;2023-08-21T01:26:04;101524.22;;;23.80;63.00
74680;BME280;63211;48.548;2.704;2023-08-21T01:28:31;101524.22;;;23.80;63.30
74680;BME280;63211;48.548;2.704;2023-08-21T01:31:05;101523.75;;;23.72;63.00
74680;BME280;63211;48.548;2.704;2023-08-21T01:33:35;101524.22;;;23.80;63.72
74680;BME280;63211;48.548;2.704;2023-08-21T01:36:03;101526.75;;;23.82;63.19
74680;BME280;63211;48.548;2.704;2023-08-21T01:38:32;101527.81;;;23.81;63.98
74680;BME280;63211;48.548;2.704;2023-08-21T01:41:01;101521.34;;;23.87;63.92
74680;BME280;63211;48.548;2.704;2023-08-21T01:43:28;101522.19;;;23.87;64.43
74680;BME280;63211;48.548;2.704;2023-08-21T01:45:55;101522.78;;;23.89;64.24
74680;BME280;63211;48.548;2.704;2023-08-21T01:48:21;101524.69;;;23.89;63.99
74680;BME280;63211;48.548;2.704;2023-08-21T01:50:48;101540.69;;;23.92;63.71
74680;BME280;63211;48.548;2.704;2023-08-21T01:53:15;101531.03;;;23.89;63.99
74680;BME280;63211;48.548;2.704;2023-08-21T01:55:41;101531.03;;;23.89;64.17
74680;BME280;63211;48.548;2.704;2023-08-21T01:58:09;101468.53;;;23.50;63.89
74680;BME280;63211;48.548;2.704;2023-08-21T02:00:36;101518.84;;;23.74;64.12
74680;BME280;63211;48.548;2.704;2023-08-21T02:03:03;101538.34;;;23.84;63.88
74680;BME280;63211;48.548;2.704;2023-08-21T02:05:29;101554.13;;;23.88;64.08
74680;BME280;63211;48.548;2.704;2023-08-21T02:07:56;101551.38;;;23.88;64.50
74680;BME280;63211;48.548;2.704;2023-08-21T02:10:22;101549.69;;;23.87;64.29
74680;BME280;63211;48.548;2.704;2023-08-21T02:12:50;101551.84;;;23.85;64.23
74680;BME280;63211;48.548;2.704;2023-08-21T02:15:18;101551.00;;;23.85;64.51
74680;BME280;63211;48.548;2.704;2023-08-21T02:17:47;101549.94;;;23.86;64.36
74680;BME280;63211;48.548;2.704;2023-08-21T02:20:14;101543.25;;;23.82;64.65
74680;BME280;63211;48.548;2.704;2023-08-21T02:22:41;101554.00;;;23.83;64.61
74680;BME280;63211;48.548;2.704;2023-08-21T02:25:07;101552.69;;;23.86;64.49
74680;BME280;63211;48.548;2.704;2023-08-21T02:27:34;101558.44;;;23.84;64.58
74680;BME280;63211;48.548;2.704;2023-08-21T02:30:01;101551.13;;;23.78;64.43
74680;BME280;63211;48.548;2.704;2023-08-21T02:32:29;101556.75;;;23.83;64.26
74680;BME280;63211;48.548;2.704;2023-08-21T02:34:55;101550.88;;;23.80;64.23
74680;BME280;63211;48.548;2.704;2023-08-21T02:37:22;101544.19;;;23.76;64.14
74680;BME280;63211;48.548;2.704;2023-08-21T02:39:49;101545.28;;;23.75;64.24
74680;BME280;63211;48.548;2.704;2023-08-21T02:42:15;101547.66;;;23.83;64.54
74680;BME280;63211;48.548;2.704;2023-08-21T02:44:42;101556.16;;;23.81;64.72
74680;BME280;63211;48.548;2.704;2023-08-21T02:47:08;101553.66;;;23.80;64.47
74680;BME280;63211;48.548;2.704;2023-08-21T02:49:36;101542.41;;;23.81;64.74
74680;BME280;63211;48.548;2.704;2023-08-21T02:52:03;101548.16;;;23.80;64.50
74680;BME280;63211;48.548;2.704;2023-08-21T02:54:30;101538.22;;;23.79;64.80
74680;BME280;63211;48.548;2.704;2023-08-21T02:56:57;101539.28;;;23.78;64.12
74680;BME280;63211;48.548;2.704;2023-08-21T02:59:23;101544.78;;;23.78;63.83
74680;BME280;63211;48.548;2.704;2023-08-21T03:01:50;101533.06;;;23.71;63.90
74680;BME280;63211;48.548;2.704;2023-08-21T03:04:17;101543.13;;;23.77;64.22
74680;BME280;63211;48.548;2.704;2023-08-21T03:06:44;101545.63;;;23.78;64.02
74680;BME280;63211;48.548;2.704;2023-08-21T03:09:11;101547.78;;;23.76;64.09
74680;BME280;63211;48.548;2.704;2023-08-21T03:11:38;101552.44;;;23.76;64.10
74680;BME280;63211;48.548;2.704;2023-08-21T03:14:04;101539.41;;;23.71;64.16
74680;BME280;63211;48.548;2.704;2023-08-21T03:16:31;101557.72;;;23.77;64.05
74680;BME280;63211;48.548;2.704;2023-08-21T03:18:59;101539.31;;;23.66;64.06
74680;BME280;63211;48.548;2.704;2023-08-21T03:21:26;101549.09;;;23.74;64.07
74680;BME280;63211;48.548;2.704;2023-08-21T03:23:56;101541.59;;;23.69;64.42
74680;BME280;63211;48.548;2.704;2023-08-21T03:26:24;101552.94;;;23.73;64.23
74680;BME280;63211;48.548;2.704;2023-08-21T03:28:51;101547.44;;;23.73;64.18
74680;BME280;63211;48.548;2.704;2023-08-21T03:31:17;101543.25;;;23.70;64.36
74680;BME280;63211;48.548;2.704;2023-08-21T03:33:44;101536.91;;;23.70;64.16
74680;BME280;63211;48.548;2.704;2023-08-21T03:36:12;101541.31;;;23.71;64.39
74680;BME280;63211;48.548;2.704;2023-08-21T03:38:38;101548.75;;;23.70;63.92
74680;BME280;63211;48.548;2.704;2023-08-21T03:41:06;101542.66;;;23.68;64.27
74680;BME280;63211;48.548;2.704;2023-08-21T03:43:33;101549.56;;;23.71;63.95
74680;BME280;63211;48.548;2.704;2023-08-21T03:45:59;101552.84;;;23.68;64.09
74680;BME280;63211;48.548;2.704;2023-08-21T03:48:26;101555.34;;;23.69;63.88
74680;BME280;63211;48.548;2.704;2023-08-21T03:50:53;101551.75;;;23.69;64.43
74680;BME280;63211;48.548;2.704;2023-08-21T03:53:19;101554.75;;;23.67;64.48
74680;BME280;63211;48.548;2.704;2023-08-21T03:55:46;101550.56;;;23.64;64.37
74680;BME280;63211;48.548;2.704;2023-08-21T03:58:14;101551.41;;;23.65;64.45
74680;BME280;63211;48.548;2.704;2023-08-21T04:00:41;101551.16;;;23.67;64.29
74680;BME280;63211;48.548;2.704;2023-08-21T04:03:08;101550.56;;;23.64;64.63
74680;BME280;63211;48.548;2.704;2023-08-21T04:05:34;101551.41;;;23.65;64.44
74680;BME280;63211;48.548;2.704;2023-08-21T04:08:01;101564.66;;;23.68;63.97
74680;BME280;63211;48.548;2.704;2023-08-21T04:10:27;101562.41;;;23.65;64.26
74680;BME280;63211;48.548;2.704;2023-08-21T04:12:54;101559.03;;;23.63;64.57
74680;BME280;63211;48.548;2.704;2023-08-21T04:15:22;101551.88;;;23.62;64.97
74680;BME280;63211;48.548;2.704;2023-08-21T04:17:49;101545.31;;;23.63;64.33
74680;BME280;63211;48.548;2.704;2023-08-21T04:20:15;101555.47;;;23.62;64.65
74680;BME280;63211;48.548;2.704;2023-08-21T04:22:42;101549.34;;;23.60;64.00
74680;BME280;63211;48.548;2.704;2023-08-21T04:25:08;101564.78;;;23.61;63.76
74680;BME280;63211;48.548;2.704;2023-08-21T04:27:36;101560.59;;;23.59;64.27
74680;BME280;63211;48.548;2.704;2023-08-21T04:30:04;101552.59;;;23.57;64.70
74680;BME280;63211;48.548;2.704;2023-08-21T04:32:32;101560.59;;;23.59;65.00
74680;BME280;63211;48.548;2.704;2023-08-21T04:34:59;101557.47;;;23.55;64.33
74680;BME280;63211;48.548;2.704;2023-08-21T04:37:26;101502.88;;;23.24;64.02
74680;BME280;63211;48.548;2.704;2023-08-21T04:39:53;101558.78;;;23.53;64.38
74680;BME280;63211;48.548;2.704;2023-08-21T04:42:20;101567.41;;;23.56;64.63
74680;BME280;63211;48.548;2.704;2023-08-21T04:44:48;101564.91;;;23.55;64.19
74680;BME280;63211;48.548;2.704;2023-08-21T04:47:21;101558.78;;;23.53;64.41
74680;BME280;63211;48.548;2.704;2023-08-21T04:49:50;101564.66;;;23.56;64.24
74680;BME280;63211;48.548;2.704;2023-08-21T04:52:17;101564.50;;;23.51;64.23
74680;BME280;63211;48.548;2.704;2023-08-21T04:54:43;101572.53;;;23.53;64.13
74680;BME280;63211;48.548;2.704;2023-08-21T04:57:10;101571.22;;;23.55;64.32
74680;BME280;63211;48.548;2.704;2023-08-21T04:59:38;101569.31;;;23.56;64.22
74680;BME280;63211;48.548;2.704;2023-08-21T05:02:05;101572.53;;;23.53;64.10
74680;BME280;63211;48.548;2.704;2023-08-21T05:04:32;101580.16;;;23.51;64.53
74680;BME280;63211;48.548;2.704;2023-08-21T05:07:00;101582.47;;;23.54;64.58
74680;BME280;63211;48.548;2.704;2023-08-21T05:09:27;101594.72;;;23.51;64.50
74680;BME280;63211;48.548;2.704;2023-08-21T05:11:54;101581.00;;;23.51;64.26
74680;BME280;63211;48.548;2.704;2023-08-21T05:14:20;101590.72;;;23.54;64.23
74680;BME280;63211;48.548;2.704;2023-08-21T05:16:48;101602.53;;;23.54;64.23
74680;BME280;63211;48.548;2.704;2023-08-21T05:19:15;101594.53;;;23.53;64.60
74680;BME280;63211;48.548;2.704;2023-08-21T05:21:41;101597.47;;;23.51;64.12
74680;BME280;63211;48.548;2.704;2023-08-21T05:24:09;101599.41;;;23.51;65.19
74680;BME280;63211;48.548;2.704;2023-08-21T05:26:36;101589.00;;;23.41;65.14
74680;BME280;63211;48.548;2.704;2023-08-21T05:29:02;101601.09;;;23.52;64.37
74680;BME280;63211;48.548;2.704;2023-08-21T05:31:29;101602.66;;;23.48;64.90
74680;BME280;63211;48.548;2.704;2023-08-21T05:33:56;101589.00;;;23.41;64.58
74680;BME280;63211;48.548;2.704;2023-08-21T05:36:23;101615.06;;;23.50;65.00
74680;BME280;63211;48.548;2.704;2023-08-21T05:38:49;101615.06;;;23.50;64.13
74680;BME280;63211;48.548;2.704;2023-08-21T05:41:18;101601.31;;;23.50;64.70
74680;BME280;63211;48.548;2.704;2023-08-21T05:43:44;101604.22;;;23.55;64.89
74680;BME280;63211;48.548;2.704;2023-08-21T05:46:12;101534.72;;;23.13;65.01
74680;BME280;63211;48.548;2.704;2023-08-21T05:48:39;101606.97;;;23.55;64.87
74680;BME280;63211;48.548;2.704;2023-08-21T05:51:05;101606.81;;;23.39;62.77
74680;BME280;63211;48.548;2.704;2023-08-21T05:53:32;101595.91;;;23.32;59.99
74680;BME280;63211;48.548;2.704;2023-08-21T05:55:59;101608.06;;;23.13;59.77
74680;BME280;63211;48.548;2.704;2023-08-21T05:58:27;101622.00;;;23.00;59.44
74680;BME280;63211;48.548;2.704;2023-08-21T06:00:55;101618.56;;;23.04;59.18
74680;BME280;63211;48.548;2.704;2023-08-21T06:03:22;101616.75;;;22.98;58.96
74680;BME280;63211;48.548;2.704;2023-08-21T06:05:49;101622.00;;;23.00;58.97
74680;BME280;63211;48.548;2.704;2023-08-21T06:08:16;101626.06;;;22.97;59.04
74680;BME280;63211;48.548;2.704;2023-08-21T06:10:43;101622.72;;;22.95;58.21
74680;BME280;63211;48.548;2.704;2023-08-21T06:13:10;101616.22;;;22.89;58.79
74680;BME280;63211;48.548;2.704;2023-08-21T06:15:37;101613.50;;;22.89;58.44
74680;BME280;63211;48.548;2.704;2023-08-21T06:18:04;101616.84;;;22.91;57.85
74680;BME280;63211;48.548;2.704;2023-08-21T06:20:31;101622.34;;;22.91;58.05
74680;BME280;63211;48.548;2.704;2023-08-21T06:22:57;101612.88;;;22.87;58.23
74680;BME280;63211;48.548;2.704;2023-08-21T06:25:24;101621.03;;;22.94;58.21
74680;BME280;63211;48.548;2.704;2023-08-21T06:27:51;101626.53;;;22.94;58.27
74680;BME280;63211;48.548;2.704;2023-08-21T06:30:17;101622.72;;;22.95;57.92
74680;BME280;63211;48.548;2.704;2023-08-21T06:32:45;101614.09;;;22.91;58.78
74680;BME280;63211;48.548;2.704;2023-08-21T06:35:12;101626.28;;;22.95;57.78
74680;BME280;63211;48.548;2.704;2023-08-21T06:37:39;101614.31;;;22.90;58.51
74680;BME280;63211;48.548;2.704;2023-08-21T06:40:06;101620.09;;;23.00;58.00
74680;BME280;63211;48.548;2.704;2023-08-21T06:42:33;101629.41;;;22.99;57.54
74680;BME280;63211;48.548;2.704;2023-08-21T06:45:00;101632.41;;;22.98;58.20
74680;BME280;63211;48.548;2.704;2023-08-21T06:47:27;101627.38;;;22.94;58.10
74680;BME280;63211;48.548;2.704;2023-08-21T06:49:55;101629.66;;;22.98;57.46
74680;BME280;63211;48.548;2.704;2023-08-21T06:52:22;101623.91;;;22.99;57.44
74680;BME280;63211;48.548;2.704;2023-08-21T06:54:48;101620.94;;;23.01;57.60
74680;BME280;63211;48.548;2.704;2023-08-21T06:57:15;101633.97;;;23.05;57.04
74680;BME280;63211;48.548;2.704;2023-08-21T06:59:41;101633.25;;;23.10;57.13
74680;BME280;63211;48.548;2.704;2023-08-21T07:02:08;101610.28;;;22.92;56.88
74680;BME280;63211;48.548;2.704;2023-08-21T07:04:35;101633.25;;;23.10;57.59
74680;BME280;63211;48.548;2.704;2023-08-21T07:07:03;101635.78;;;23.11;56.24
74680;BME280;63211;48.548;2.704;2023-08-21T07:09:29;101626.81;;;23.16;56.23
74680;BME280;63211;48.548;2.704;2023-08-21T07:11:56;101634.47;;;23.14;56.59
74680;BME280;63211;48.548;2.704;2023-08-21T07:14:23;101625.75;;;23.17;56.09
74680;BME280;63211;48.548;2.704;2023-08-21T07:16:49;101632.69;;;23.19;56.11
74680;BME280;63211;48.548;2.704;2023-08-21T07:19:16;101629.25;;;23.24;56.02
74680;BME280;63211;48.548;2.704;2023-08-21T07:21:43;101634.97;;;23.22;56.09
74680;BME280;63211;48.548;2.704;2023-08-21T07:24:11;101636.88;;;23.22;55.79
74680;BME280;63211;48.548;2.704;2023-08-21T07:26:38;101633.69;;;23.25;55.48
74680;BME280;63211;48.548;2.704;2023-08-21T07:29:04;101620.53;;;23.27;55.33
74680;BME280;63211;48.548;2.704;2023-08-21T07:31:32;101628.19;;;23.25;55.89
74680;BME280;63211;48.548;2.704;2023-08-21T07:33:58;101633.19;;;23.28;55.24
74680;BME280;63211;48.548;2.704;2023-08-21T07:36:25;101631.88;;;23.30;55.55
74680;BME280;63211;48.548;2.704;2023-08-21T07:38:52;101633.06;;;23.35;55.45
74680;BME280;63211;48.548;2.704;2023-08-21T07:41:19;101634.66;;;23.42;55.28
74680;BME280;63211;48.548;2.704;2023-08-21T07:43:46;101641.00;;;23.43;55.42
74680;BME280;63211;48.548;2.704;2023-08-21T07:46:13;101612.78;;;23.36;55.05
74680;BME280;63211;48.548;2.704;2023-08-21T07:48:41;101630.38;;;23.46;54.92
74680;BME280;63211;48.548;2.704;2023-08-21T07:51:08;101638.50;;;23.53;54.93
74680;BME280;63211;48.548;2.704;2023-08-21T07:53:34;101634.69;;;23.54;55.26
74680;BME280;63211;48.548;2.704;2023-08-21T07:56:02;101631.94;;;23.54;55.10
74680;BME280;63211;48.548;2.704;2023-08-21T07:58:30;101637.03;;;23.50;55.20
74680;BME280;63211;48.548;2.704;2023-08-21T08:00:58;101572.50;;;23.18;55.10
74680;BME280;63211;48.548;2.704;2023-08-21T08:03:25;101632.38;;;23.51;55.01
74680;BME280;63211;48.548;2.704;2023-08-21T08:05:52;101628.25;;;23.60;54.38
74680;BME280;63211;48.548;2.704;2023-08-21T08:08:18;101637.56;;;23.59;55.06
74680;BME280;63211;48.548;2.704;2023-08-21T08:10:45;101619.00;;;23.43;54.56
74680;BME280;63211;48.548;2.704;2023-08-21T08:13:11;101627.66;;;23.58;55.20
74680;BME280;63211;48.548;2.704;2023-08-21T08:15:39;101629.09;;;23.60;55.50
74680;BME280;63211;48.548;2.704;2023-08-21T08:18:11;101630.28;;;23.64;55.46
74680;BME280;63211;48.548;2.704;2023-08-21T08:20:38;101631.13;;;23.65;55.30
74680;BME280;63211;48.548;2.704;2023-08-21T08:23:04;101622.03;;;23.64;56.28
74680;BME280;63211;48.548;2.704;2023-08-21T08:25:31;101631.00;;;23.72;56.22
74680;BME280;63211;48.548;2.704;2023-08-21T08:27:58;101629.31;;;23.71;56.81
74680;BME280;63211;48.548;2.704;2023-08-21T08:30:25;101639.84;;;23.74;56.86
74680;BME280;63211;48.548;2.704;2023-08-21T08:32:53;101630.66;;;23.68;55.55
74680;BME280;63211;48.548;2.704;2023-08-21T08:35:19;101631.13;;;23.77;56.39
74680;BME280;63211;48.548;2.704;2023-08-21T08:37:46;101633.03;;;23.76;57.30
74680;BME280;63211;48.548;2.704;2023-08-21T08:40:12;101622.63;;;23.78;56.11
74680;BME280;63211;48.548;2.704;2023-08-21T08:42:39;101630.03;;;23.78;54.81
74680;BME280;63211;48.548;2.704;2023-08-21T08:45:07;101635.31;;;23.79;56.73
74680;BME280;63211;48.548;2.704;2023-08-21T08:47:34;101632.56;;;23.79;56.66
74680;BME280;63211;48.548;2.704;2023-08-21T08:50:04;101620.34;;;23.75;56.20
74680;BME280;63211;48.548;2.704;2023-08-21T08:52:34;101637.81;;;23.81;57.25
74680;BME280;63211;48.548;2.704;2023-08-21T08:55:01;101637.34;;;23.84;57.34
74680;BME280;63211;48.548;2.704;2023-08-21T08:57:29;101637.34;;;23.84;57.22
74680;BME280;63211;48.548;2.704;2023-08-21T08:59:55;101625.50;;;23.83;56.58
74680;BME280;63211;48.548;2.704;2023-08-21T09:02:24;101625.41;;;23.90;56.73
74680;BME280;63211;48.548;2.704;2023-08-21T09:04:50;101628.94;;;23.90;55.99
74680;BME280;63211;48.548;2.704;2023-08-21T09:07:18;101635.41;;;23.96;56.58
74680;BME280;63211;48.548;2.704;2023-08-21T09:09:46;101618.31;;;23.94;55.64
74680;BME280;63211;48.548;2.704;2023-08-21T09:12:15;101628.13;;;24.02;56.74
74680;BME280;63211;48.548;2.704;2023-08-21T09:14:43;101629.78;;;24.03;56.73
74680;BME280;63211;48.548;2.704;2023-08-21T09:17:10;101626.81;;;24.04;57.07
74680;BME280;63211;48.548;2.704;2023-08-21T09:19:37;101625.97;;;24.04;56.64
74680;BME280;63211;48.548;2.704;2023-08-21T09:22:08;101625.72;;;24.05;56.32
74680;BME280;63211;48.548;2.704;2023-08-21T09:24:36;101631.00;;;24.07;56.65
74680;BME280;63211;48.548;2.704;2023-08-21T09:27:03;101632.66;;;24.08;56.77
74680;BME280;63211;48.548;2.704;2023-08-21T09:29:38;101619.75;;;24.08;56.80
74680;BME280;63211;48.548;2.704;2023-08-21T09:32:05;101630.25;;;24.11;56.40
74680;BME280;63211;48.548;2.704;2023-08-21T09:34:34;101623.66;;;24.12;56.52
74680;BME280;63211;48.548;2.704;2023-08-21T09:37:04;101620.91;;;24.12;56.77
74680;BME280;63211;48.548;2.704;2023-08-21T09:39:33;101617.91;;;24.14;56.75
74680;BME280;63211;48.548;2.704;2023-08-21T09:42:01;101616.47;;;24.11;56.92
74680;BME280;63211;48.548;2.704;2023-08-21T09:44:29;101615.16;;;24.14;56.89
74680;BME280;63211;48.548;2.704;2023-08-21T09:47:01;101610.75;;;24.13;57.15
74680;BME280;63211;48.548;2.704;2023-08-21T09:49:27;101598.56;;;24.09;57.11
74680;BME280;63211;48.548;2.704;2023-08-21T09:51:55;101606.91;;;24.14;57.04
74680;BME280;63211;48.548;2.704;2023-08-21T09:54:22;101603.31;;;24.13;57.14
74680;BME280;63211;48.548;2.704;2023-08-21T09:56:50;101601.78;;;24.17;55.25
74680;BME280;63211;48.548;2.704;2023-08-21T09:59:18;101607.03;;;24.19;56.52
74680;BME280;63211;48.548;2.704;2023-08-21T10:01:47;101605.00;;;24.14;57.22
74680;BME280;63211;48.548;2.704;2023-08-21T10:04:16;101604.03;;;24.20;56.63
74680;BME280;63211;48.548;2.704;2023-08-21T10:06:44;101605.34;;;24.18;57.43
74680;BME280;63211;48.548;2.704;2023-08-21T10:09:11;101605.13;;;24.19;56.70
74680;BME280;63211;48.548;2.704;2023-08-21T10:11:39;101600.69;;;24.18;56.92
74680;BME280;63211;48.548;2.704;2023-08-21T10:14:06;101577.28;;;24.04;57.31
74680;BME280;63211;48.548;2.704;2023-08-21T10:16:35;101598.78;;;24.19;57.77
74680;BME280;63211;48.548;2.704;2023-08-21T10:19:03;101599.63;;;24.19;57.34
74680;BME280;63211;48.548;2.704;2023-08-21T10:21:34;101597.47;;;24.21;57.64
74680;BME280;63211;48.548;2.704;2023-08-21T10:24:01;101604.44;;;24.24;57.43
74680;BME280;63211;48.548;2.704;2023-08-21T10:26:28;101587.28;;;24.22;57.38
74680;BME280;63211;48.548;2.704;2023-08-21T10:28:55;101591.13;;;24.21;57.61
74680;BME280;63211;48.548;2.704;2023-08-21T10:31:36;101590.75;;;24.17;57.56
74680;BME280;63211;48.548;2.704;2023-08-21T10:34:05;101591.34;;;24.19;57.78
74680;BME280;63211;48.548;2.704;2023-08-21T10:37:02;101591.13;;;24.21;57.63
74680;BME280;63211;48.548;2.704;2023-08-21T10:39:29;101585.63;;;24.21;57.53
74680;BME280;63211;48.548;2.704;2023-08-21T10:42:01;101575.44;;;24.21;57.58
74680;BME280;63211;48.548;2.704;2023-08-21T10:44:35;101573.53;;;24.22;57.87
74680;BME280;63211;48.548;2.704;2023-08-21T10:47:16;101566.34;;;24.21;57.73
74680;BME280;63211;48.548;2.704;2023-08-21T10:49:45;101574.38;;;24.22;57.96
74680;BME280;63211;48.548;2.704;2023-08-21T10:52:12;101577.75;;;24.24;58.02
74680;BME280;63211;48.548;2.704;2023-08-21T10:54:46;101568.41;;;24.25;57.90
74680;BME280;63211;48.548;2.704;2023-08-21T10:57:13;101561.44;;;24.23;57.96
74680;BME280;63211;48.548;2.704;2023-08-21T10:59:49;101566.75;;;24.24;57.64
74680;BME280;63211;48.548;2.704;2023-08-21T11:02:18;101562.53;;;24.22;58.17
74680;BME280;63211;48.548;2.704;2023-08-21T11:04:44;101559.19;;;24.20;58.17
74680;BME280;63211;48.548;2.704;2023-08-21T11:07:11;101559.31;;;24.25;58.38
74680;BME280;63211;48.548;2.704;2023-08-21T11:09:38;101552.25;;;24.17;58.46
74680;BME280;63211;48.548;2.704;2023-08-21T11:12:15;101572.25;;;24.24;58.50
74680;BME280;63211;48.548;2.704;2023-08-21T11:14:53;101567.56;;;24.25;58.47
74680;BME280;63211;48.548;2.704;2023-08-21T11:17:21;101557.84;;;24.22;58.35
74680;BME280;63211;48.548;2.704;2023-08-21T11:19:48;101557.03;;;24.22;58.09
74680;BME280;63211;48.548;2.704;2023-08-21T11:22:15;101557.84;;;24.22;58.56
74680;BME280;63211;48.548;2.704;2023-08-21T11:24:44;101558.94;;;24.21;58.57
74680;BME280;63211;48.548;2.704;2023-08-21T11:27:12;101528.72;;;24.10;58.49
74680;BME280;63211;48.548;2.704;2023-08-21T11:29:41;101561.22;;;24.24;58.77
74680;BME280;63211;48.548;2.704;2023-08-21T11:32:09;101544.94;;;24.23;58.49
74680;BME280;63211;48.548;2.704;2023-08-21T11:34:37;101551.06;;;24.25;58.71
74680;BME280;63211;48.548;2.704;2023-08-21T11:37:05;101530.94;;;24.13;58.60
74680;BME280;63211;48.548;2.704;2023-08-21T11:39:42;101553.56;;;24.26;58.59
74680;BME280;63211;48.548;2.704;2023-08-21T11:42:10;101548.06;;;24.26;58.21
74680;BME280;63211;48.548;2.704;2023-08-21T11:44:42;101545.56;;;24.25;58.97
74680;BME280;63211;48.548;2.704;2023-08-21T11:47:08;101548.31;;;24.25;59.02
74680;BME280;63211;48.548;2.704;2023-08-21T11:49:37;101535.50;;;24.19;58.95
74680;BME280;63211;48.548;2.704;2023-08-21T11:52:06;101541.13;;;24.24;58.70
74680;BME280;63211;48.548;2.704;2023-08-21T11:54:34;101550.81;;;24.26;58.87
74680;BME280;63211;48.548;2.704;2023-08-21T11:57:04;101546.63;;;24.24;59.22
74680;BME280;63211;48.548;2.704;2023-08-21T11:59:31;101544.09;;;24.22;59.04
74680;BME280;63211;48.548;2.704;2023-08-21T12:01:58;101541.97;;;24.24;59.04
74680;BME280;63211;48.548;2.704;2023-08-21T12:04:25;101533.94;;;24.23;58.98
74680;BME280;63211;48.548;2.704;2023-08-21T12:06:53;101547.47;;;24.24;59.40
74680;BME280;63211;48.548;2.704;2023-08-21T12:09:20;101534.75;;;24.23;59.06
74680;BME280;63211;48.548;2.704;2023-08-21T12:11:46;101526.16;;;24.20;58.98
74680;BME280;63211;48.548;2.704;2023-08-21T12:14:13;101525.66;;;24.23;59.06
74680;BME280;63211;48.548;2.704;2023-08-21T12:16:39;101520.31;;;24.16;59.20
74680;BME280;63211;48.548;2.704;2023-08-21T12:19:06;101533.22;;;24.27;59.10
74680;BME280;63211;48.548;2.704;2023-08-21T12:21:34;101537.91;;;24.27;59.03
74680;BME280;63211;48.548;2.704;2023-08-21T12:24:04;101535.97;;;24.27;58.96
74680;BME280;63211;48.548;2.704;2023-08-21T12:26:31;101531.81;;;24.25;58.96
74680;BME280;63211;48.548;2.704;2023-08-21T12:28:58;101533.47;;;24.26;58.72
74680;BME280;63211;48.548;2.704;2023-08-21T12:31:25;101536.22;;;24.26;58.92
74680;BME280;63211;48.548;2.704;2023-08-21T12:33:51;101531.56;;;24.26;58.91
74680;BME280;63211;48.548;2.704;2023-08-21T12:36:18;101522.72;;;24.24;58.68
74680;BME280;63211;48.548;2.704;2023-08-21T12:38:44;101499.28;;;24.10;59.10
74680;BME280;63211;48.548;2.704;2023-08-21T12:41:13;101524.38;;;24.25;59.26
74680;BME280;63211;48.548;2.704;2023-08-21T12:43:39;101531.31;;;24.28;58.87
74680;BME280;63211;48.548;2.704;2023-08-21T12:46:06;101523.31;;;24.26;59.18
74680;BME280;63211;48.548;2.704;2023-08-21T12:48:32;101506.41;;;24.23;58.97
74680;BME280;63211;48.548;2.704;2023-08-21T12:50:59;101505.13;;;24.25;59.32
74680;BME280;63211;48.548;2.704;2023-08-21T12:53:26;101512.28;;;24.26;59.24